Time;durP1;ratioP1;P1;durP2;ratioP2;P2;SDS_P1;SDS_P2;PMS_P1;PMS_P2;Temp;Humidity;BMP_temperature;BMP_pressure;BME280_temperature;BME280_humidity;BME280_pressure;Samples;Min_cycle;Max_cycle;Signal;HPM_P1;HPM_P2
2023/05/06 00:01:05;;;;;;;7.30;5.07;;;;;;;10.82;100.00;100481.47;5052939;28;20032;-75
2023/05/06 00:03:31;;;;;;;12.75;5.35;;;;;;;10.78;100.00;100475.91;5054187;28;20079;-73
2023/05/06 00:05:57;;;;;;;9.52;5.50;;;;;;;10.74;100.00;100469.59;5054523;28;20020;-74
2023/05/06 00:08:25;;;;;;;10.93;5.53;;;;;;;10.74;100.00;100477.38;5037517;28;20424;-73
2023/05/06 00:10:50;;;;;;;10.70;5.47;;;;;;;10.69;100.00;100476.00;5054843;28;20037;-74
2023/05/06 00:13:17;;;;;;;8.35;5.10;;;;;;;10.64;100.00;100473.81;5037279;28;20386;-73
2023/05/06 00:15:43;;;;;;;8.82;5.15;;;;;;;10.64;100.00;100464.44;5055022;28;20032;-74
2023/05/06 00:18:09;;;;;;;9.07;5.63;;;;;;;10.62;100.00;100458.44;5053820;28;20033;-74
2023/05/06 00:20:35;;;;;;;9.95;5.65;;;;;;;10.65;100.00;100458.25;5055077;28;20041;-73
2023/05/06 00:23:02;;;;;;;7.18;5.20;;;;;;;10.62;100.00;100455.59;5055768;28;20088;-75
2023/05/06 00:25:27;;;;;;;8.48;5.15;;;;;;;10.62;100.00;100444.97;5061197;28;20492;-75
2023/05/06 00:27:53;;;;;;;12.18;5.25;;;;;;;10.60;100.00;100447.50;5061290;28;20044;-76
2023/05/06 00:30:18;;;;;;;9.00;5.55;;;;;;;10.62;100.00;100449.88;5060279;28;20454;-76
2023/05/06 00:32:43;;;;;;;11.52;5.47;;;;;;;10.53;100.00;100439.31;5054991;28;20029;-72
2023/05/06 00:35:09;;;;;;;8.30;5.63;;;;;;;10.56;100.00;100449.75;5053645;28;20020;-74
2023/05/06 00:37:38;;;;;;;12.70;5.28;;;;;;;10.53;100.00;100448.66;5052548;28;20025;-73
2023/05/06 00:40:12;;;;;;;9.68;5.47;;;;;;;10.50;100.00;100449.66;5053319;28;20028;-73
2023/05/06 00:42:39;;;;;;;15.20;5.45;;;;;;;10.49;100.00;100442.34;5054161;28;20059;-73
2023/05/06 00:45:05;;;;;;;8.13;5.47;;;;;;;10.44;100.00;100447.94;5053080;28;20037;-74
2023/05/06 00:47:32;;;;;;;9.82;5.35;;;;;;;10.46;100.00;100445.41;5055865;28;20067;-75
2023/05/06 00:49:58;;;;;;;7.65;4.63;;;;;;;10.49;100.00;100445.22;5055268;28;20071;-73
2023/05/06 00:52:23;;;;;;;14.07;5.00;;;;;;;10.52;100.00;100447.09;5053506;28;20037;-74
2023/05/06 00:54:50;;;;;;;8.25;5.43;;;;;;;10.58;100.00;100443.56;5052981;28;20032;-75
2023/05/06 00:57:18;;;;;;;7.97;5.43;;;;;;;10.61;100.00;100436.88;5036381;28;20465;-74
2023/05/06 00:59:45;;;;;;;9.00;5.18;;;;;;;10.59;100.00;100434.50;5053099;28;20466;-74
2023/05/06 01:02:11;;;;;;;7.68;4.60;;;;;;;10.59;100.00;100436.56;5054560;28;20409;-71
2023/05/06 01:04:40;;;;;;;9.95;5.43;;;;;;;10.57;100.00;100427.69;5054324;28;20025;-73
2023/05/06 01:07:36;;;;;;;11.90;5.63;;;;;;;10.62;100.00;100439.25;5054149;28;20535;-72
2023/05/06 01:10:24;;;;;;;9.20;5.35;;;;;;;10.67;100.00;100435.69;5031590;28;20463;-73
2023/05/06 01:13:11;;;;;;;11.00;4.93;;;;;;;10.65;100.00;100440.31;5053282;28;20033;-74
2023/05/06 01:15:45;;;;;;;9.57;5.57;;;;;;;10.65;100.00;100441.09;5053968;28;20386;-74
2023/05/06 01:18:14;;;;;;;9.88;4.97;;;;;;;10.66;100.00;100439.84;5036245;28;20433;-73
2023/05/06 01:20:42;;;;;;;9.65;5.43;;;;;;;10.67;100.00;100449.19;5052661;28;20032;-75
2023/05/06 01:23:12;;;;;;;8.23;4.95;;;;;;;10.68;100.00;100442.22;5052699;28;20067;-74
2023/05/06 01:25:38;;;;;;;6.72;4.65;;;;;;;10.67;100.00;100443.47;5052649;28;20028;-74
2023/05/06 01:28:08;;;;;;;8.95;5.13;;;;;;;10.65;100.00;100449.69;5052628;28;20029;-75
2023/05/06 01:31:02;;;;;;;6.93;5.20;;;;;;;10.65;100.00;100454.59;5052539;28;20078;-76
2023/05/06 01:33:46;;;;;;;11.38;5.22;;;;;;;10.61;100.00;100457.66;5052652;28;20040;-74
2023/05/06 01:36:29;;;;;;;11.32;5.63;;;;;;;10.64;100.00;100461.59;5052912;28;20033;-75
2023/05/06 01:39:23;;;;;;;7.55;4.75;;;;;;;10.59;100.00;100457.34;5052502;28;20048;-75
2023/05/06 01:41:50;;;;;;;7.25;4.95;;;;;;;10.57;100.00;100453.41;5051126;28;20182;-73
2023/05/06 01:44:21;;;;;;;7.63;4.57;;;;;;;10.58;100.00;100450.06;5034000;28;20041;-76
2023/05/06 01:46:48;;;;;;;14.48;5.28;;;;;;;10.59;100.00;100447.97;5051071;28;20036;-75
2023/05/06 01:49:17;;;;;;;11.77;5.60;;;;;;;10.56;100.00;100444.06;5052569;28;20033;-74
2023/05/06 01:51:58;;;;;;;8.20;4.78;;;;;;;10.56;100.00;100435.47;5052303;28;20036;-74
2023/05/06 01:54:45;;;;;;;6.70;4.63;;;;;;;10.56;100.00;100429.75;5052645;28;20223;-75
2023/05/06 01:57:27;;;;;;;11.27;5.25;;;;;;;10.57;100.00;100422.78;5050916;28;20083;-74
2023/05/06 01:59:53;;;;;;;6.93;4.95;;;;;;;10.56;100.00;100415.47;5050667;28;20564;-75
2023/05/06 02:02:25;;;;;;;8.35;4.22;;;;;;;10.56;100.00;100412.63;5052102;28;20037;-76
2023/05/06 02:04:52;;;;;;;10.18;5.68;;;;;;;10.46;100.00;100399.69;5052555;28;20469;-75
2023/05/06 02:07:17;;;;;;;10.13;4.57;;;;;;;10.47;100.00;100421.28;5053178;28;20466;-75
2023/05/06 02:09:45;;;;;;;11.13;5.03;;;;;;;10.45;100.00;100423.81;5053123;28;20032;-75
2023/05/06 02:12:11;;;;;;;7.13;5.43;;;;;;;10.39;100.00;100422.91;5053532;28;20028;-74
2023/05/06 02:14:37;;;;;;;7.65;5.03;;;;;;;10.37;100.00;100422.63;5052120;28;20039;-76
2023/05/06 02:17:04;;;;;;;12.20;5.50;;;;;;;10.37;100.00;100423.44;5053616;28;20037;-74
2023/05/06 02:19:30;;;;;;;12.50;4.93;;;;;;;10.32;100.00;100418.38;5053450;28;20353;-74
2023/05/06 02:21:57;;;;;;;6.15;4.65;;;;;;;10.37;100.00;100414.06;5052271;28;20528;-74
2023/05/06 02:24:22;;;;;;;8.73;5.10;;;;;;;10.38;100.00;100416.41;5052159;28;20474;-76
2023/05/06 02:26:48;;;;;;;9.18;5.50;;;;;;;10.35;100.00;100419.47;5051879;28;20032;-73
2023/05/06 02:29:14;;;;;;;8.48;5.35;;;;;;;10.34;100.00;100423.59;5051741;28;20037;-74
2023/05/06 02:31:40;;;;;;;7.22;5.30;;;;;;;10.35;100.00;100425.19;5052626;28;20044;-72
2023/05/06 02:34:08;;;;;;;8.38;5.32;;;;;;;10.39;100.00;100423.72;5053033;28;20412;-74
2023/05/06 02:36:34;;;;;;;8.93;5.32;;;;;;;10.41;100.00;100417.50;5035410;28;20033;-74
2023/05/06 02:39:00;;;;;;;8.43;5.07;;;;;;;10.41;100.00;100421.16;5053087;28;20120;-74
2023/05/06 02:41:26;;;;;;;7.32;4.82;;;;;;;10.43;100.00;100414.97;5052577;28;20494;-74
2023/05/06 02:43:52;;;;;;;8.55;4.57;;;;;;;10.43;100.00;100418.59;5051709;28;20517;-73
2023/05/06 02:46:19;;;;;;;12.85;5.63;;;;;;;10.42;100.00;100414.19;5053037;28;20116;-75
2023/05/06 02:48:45;;;;;;;9.95;5.90;;;;;;;10.45;100.00;100412.41;5053289;28;20470;-73
2023/05/06 02:51:12;;;;;;;9.80;4.93;;;;;;;10.49;100.00;100410.13;5052874;28;20072;-73
2023/05/06 02:53:38;;;;;;;9.18;4.90;;;;;;;10.45;100.00;100412.41;5051613;28;20037;-72
2023/05/06 02:56:04;;;;;;;9.80;5.10;;;;;;;10.46;100.00;100411.13;5051654;28;20528;-74
2023/05/06 02:58:30;;;;;;;13.65;5.65;;;;;;;10.48;100.00;100425.72;5053041;28;20041;-72
2023/05/06 03:00:56;;;;;;;12.52;5.53;;;;;;;10.42;100.00;100431.31;5057158;28;20029;-74
2023/05/06 03:03:25;;;;;;;7.63;4.63;;;;;;;10.42;100.00;100439.88;5053226;28;20505;-74
2023/05/06 03:05:50;;;;;;;10.68;5.20;;;;;;;10.44;100.00;100440.16;5032995;28;20041;-75
2023/05/06 03:08:17;;;;;;;11.55;5.95;;;;;;;10.48;100.00;100449.34;5052902;28;20028;-73
2023/05/06 03:10:44;;;;;;;13.50;4.90;;;;;;;10.50;100.00;100440.28;5056206;28;20033;-73
2023/05/06 03:13:12;;;;;;;8.98;5.57;;;;;;;10.53;100.00;100442.19;5056229;28;20462;-73
2023/05/06 03:15:38;;;;;;;13.93;5.70;;;;;;;10.51;100.00;100456.94;5056168;28;20458;-75
2023/05/06 03:18:06;;;;;;;8.93;5.43;;;;;;;10.52;100.00;100455.69;5056662;28;20123;-74
2023/05/06 03:20:33;;;;;;;10.40;5.13;;;;;;;10.54;100.00;100460.88;5055488;28;20029;-73
2023/05/06 03:23:00;;;;;;;8.85;5.30;;;;;;;10.57;100.00;100456.28;5038440;28;20041;-73
2023/05/06 03:25:26;;;;;;;8.95;5.07;;;;;;;10.58;100.00;100464.34;5056033;28;20028;-73
2023/05/06 03:27:53;;;;;;;9.63;5.47;;;;;;;10.59;100.00;100462.28;5038325;28;20462;-73
2023/05/06 03:30:19;;;;;;;9.50;5.40;;;;;;;10.61;100.00;100468.31;5037665;28;20083;-75
2023/05/06 03:32:46;;;;;;;9.90;4.80;;;;;;;10.62;100.00;100475.59;5056199;28;20400;-74
2023/05/06 03:35:12;;;;;;;8.23;4.43;;;;;;;10.67;100.00;100472.06;5054999;28;20037;-74
2023/05/06 03:37:40;;;;;;;8.65;5.38;;;;;;;10.67;100.00;100469.22;5055059;28;20320;-74
2023/05/06 03:40:07;;;;;;;6.72;5.57;;;;;;;10.68;100.00;100477.28;5051519;28;20370;-75
2023/05/06 03:42:33;;;;;;;8.45;5.20;;;;;;;10.65;100.00;100468.88;5055107;28;20041;-74
2023/05/06 03:45:00;;;;;;;7.13;4.97;;;;;;;10.69;100.00;100466.63;5054558;28;20024;-75
2023/05/06 03:47:27;;;;;;;8.45;5.03;;;;;;;10.67;100.00;100458.56;5054676;28;20032;-74
2023/05/06 03:49:52;;;;;;;10.85;5.45;;;;;;;10.63;100.00;100469.38;5055962;28;20095;-74
2023/05/06 03:52:20;;;;;;;9.48;4.82;;;;;;;10.64;100.00;100465.25;5055631;28;20478;-73
2023/05/06 03:54:46;;;;;;;7.03;4.78;;;;;;;10.64;100.00;100470.16;5055680;28;20580;-73
2023/05/06 03:57:12;;;;;;;12.70;5.43;;;;;;;10.67;100.00;100461.44;5055519;28;20020;-75
2023/05/06 03:59:39;;;;;;;9.25;5.25;;;;;;;10.64;100.00;100453.81;5055298;28;20053;-73
2023/05/06 04:02:04;;;;;;;8.10;5.32;;;;;;;10.62;100.00;100455.59;5055677;28;20029;-72
2023/05/06 04:04:29;;;;;;;11.55;5.72;;;;;;;10.61;100.00;100460.53;5055311;28;20501;-73
2023/05/06 04:06:56;;;;;;;8.20;4.75;;;;;;;10.63;100.00;100445.75;5055118;28;20474;-73
2023/05/06 04:09:23;;;;;;;9.55;5.72;;;;;;;10.57;100.00;100442.78;5055024;28;20021;-74
2023/05/06 04:11:48;;;;;;;9.15;5.35;;;;;;;10.52;100.00;100443.47;5055339;28;20355;-73
2023/05/06 04:14:15;;;;;;;8.65;4.95;;;;;;;10.49;100.00;100439.50;5054808;28;20044;-73
2023/05/06 04:16:40;;;;;;;8.60;5.45;;;;;;;10.44;100.00;100437.31;5055095;28;20347;-73
2023/05/06 04:19:08;;;;;;;9.75;5.00;;;;;;;10.47;100.00;100438.41;5054657;28;20039;-73
2023/05/06 04:21:34;;;;;;;8.65;5.68;;;;;;;10.49;100.00;100427.28;5054868;28;20025;-73
2023/05/06 04:24:01;;;;;;;9.10;4.72;;;;;;;10.45;100.00;100432.41;5055049;28;20047;-75
2023/05/06 04:26:27;;;;;;;7.10;4.78;;;;;;;10.39;100.00;100417.19;5053701;28;20440;-73
2023/05/06 04:28:55;;;;;;;9.48;4.78;;;;;;;10.42;100.00;100413.38;5054426;28;20067;-73
2023/05/06 04:31:22;;;;;;;10.73;5.55;;;;;;;10.41;100.00;100403.22;5054743;28;20028;-75
2023/05/06 04:33:47;;;;;;;10.27;5.35;;;;;;;10.42;100.00;100390.53;5053288;28;20130;-73
2023/05/06 04:36:14;;;;;;;8.93;5.55;;;;;;;10.41;100.00;100384.03;5053411;28;20056;-74
2023/05/06 04:38:41;;;;;;;8.65;4.72;;;;;;;10.40;100.00;100371.03;5055090;28;20025;-74
2023/05/06 04:41:06;;;;;;;10.05;5.53;;;;;;;10.39;100.00;100369.44;5057761;28;20025;-74
2023/05/06 04:43:32;;;;;;;6.63;4.72;;;;;;;10.38;100.00;100356.44;5060569;28;20381;-74
2023/05/06 04:45:58;;;;;;;18.95;5.75;;;;;;;10.37;100.00;100328.38;5061358;28;20044;-75
2023/05/06 04:48:25;;;;;;;8.52;5.10;;;;;;;10.32;100.00;100317.63;5060117;28;20041;-74
2023/05/06 04:50:52;;;;;;;8.70;5.38;;;;;;;10.29;100.00;100324.31;5055032;28;20017;-73
2023/05/06 04:53:17;;;;;;;8.45;5.30;;;;;;;10.26;100.00;100334.66;5055354;28;20040;-74
2023/05/06 04:55:43;;;;;;;8.10;4.85;;;;;;;10.18;100.00;100350.59;5055186;28;20389;-74
2023/05/06 04:58:10;;;;;;;8.43;4.45;;;;;;;10.18;100.00;100375.50;5052029;28;20513;-74
2023/05/06 05:00:35;;;;;;;6.53;5.55;;;;;;;10.19;100.00;100394.19;5054455;28;20060;-73
2023/05/06 05:03:02;;;;;;;7.40;5.28;;;;;;;10.20;100.00;100393.72;5054674;28;20551;-73
2023/05/06 05:05:28;;;;;;;8.13;4.88;;;;;;;10.24;100.00;100402.88;5055020;28;20013;-74
2023/05/06 05:07:54;;;;;;;8.95;5.43;;;;;;;10.28;100.00;100423.50;5053263;28;20054;-76
2023/05/06 05:10:21;;;;;;;7.55;4.40;;;;;;;10.30;100.00;100411.56;5037029;28;20523;-76
2023/05/06 05:12:47;;;;;;;7.15;5.35;;;;;;;10.36;100.00;100416.13;5035688;28;20437;-77
2023/05/06 05:15:14;;;;;;;11.15;4.97;;;;;;;10.40;100.00;100425.28;5053322;28;20024;-76
2023/05/06 05:17:39;;;;;;;10.80;5.22;;;;;;;10.41;100.00;100426.09;5053122;28;20021;-75
2023/05/06 05:20:08;;;;;;;9.98;4.88;;;;;;;10.41;100.00;100406.09;5052960;28;20432;-77
2023/05/06 05:22:33;;;;;;;7.10;5.30;;;;;;;10.63;100.00;100417.94;5036313;28;20059;-76
2023/05/06 05:24:59;;;;;;;8.07;5.55;;;;;;;10.68;100.00;100413.63;5054208;28;20104;-73
2023/05/06 05:27:26;;;;;;;8.00;4.93;;;;;;;10.65;100.00;100403.97;5054077;28;20116;-72
2023/05/06 05:29:51;;;;;;;8.27;4.60;;;;;;;10.66;100.00;100411.25;5053920;28;20017;-72
2023/05/06 05:32:18;;;;;;;7.50;4.90;;;;;;;10.62;100.00;100402.09;5053327;28;20052;-73
2023/05/06 05:34:45;;;;;;;7.93;5.03;;;;;;;10.57;100.00;100399.91;5053645;28;20121;-77
2023/05/06 05:37:11;;;;;;;7.63;4.95;;;;;;;10.57;100.00;100413.41;5053696;28;20470;-77
2023/05/06 05:39:38;;;;;;;7.57;5.05;;;;;;;10.53;100.00;100417.22;5053859;28;20058;-79
2023/05/06 05:42:04;;;;;;;9.60;5.60;;;;;;;10.53;100.00;100422.94;5054129;28;20111;-77
2023/05/06 05:44:32;;;;;;;8.38;4.70;;;;;;;10.51;100.00;100433.31;5054206;28;20048;-75
2023/05/06 05:46:59;;;;;;;8.75;5.15;;;;;;;10.52;100.00;100420.59;5052333;28;20037;-77
2023/05/06 05:49:24;;;;;;;8.65;5.00;;;;;;;10.54;100.00;100418.81;5052125;28;20128;-78
2023/05/06 05:51:50;;;;;;;10.93;5.45;;;;;;;10.57;100.00;100410.56;5052335;28;20548;-78
2023/05/06 05:54:16;;;;;;;8.25;4.50;;;;;;;10.63;100.00;100417.94;5053745;28;20058;-78
2023/05/06 05:56:44;;;;;;;8.85;5.55;;;;;;;10.60;100.00;100410.34;5052671;28;20500;-77
2023/05/06 05:59:10;;;;;;;11.73;6.10;;;;;;;10.63;100.00;100417.16;5053307;28;20124;-78
2023/05/06 06:01:37;;;;;;;13.77;6.15;;;;;;;10.65;100.00;100420.31;5053521;28;20060;-77
2023/05/06 06:04:05;;;;;;;12.77;5.68;;;;;;;10.67;100.00;100421.41;5053753;28;20045;-78
2023/05/06 06:06:30;;;;;;;12.70;5.50;;;;;;;10.71;100.00;100429.78;5053359;28;20430;-78
2023/05/06 06:08:57;;;;;;;10.07;5.05;;;;;;;10.72;100.00;100417.88;5035477;28;20033;-78
2023/05/06 06:11:26;;;;;;;8.25;5.88;;;;;;;10.73;100.00;100421.53;5053647;28;20071;-74
2023/05/06 06:13:53;;;;;;;12.50;6.22;;;;;;;10.74;100.00;100417.34;5053488;28;20099;-77
2023/05/06 06:16:19;;;;;;;13.30;6.57;;;;;;;10.73;100.00;100421.53;5054343;28;20025;-76
2023/05/06 06:18:45;;;;;;;12.23;6.35;;;;;;;10.71;100.00;100422.00;5053805;28;20029;-75
2023/05/06 06:21:12;;;;;;;11.68;6.70;;;;;;;10.69;100.00;100413.13;5053509;28;20025;-76
2023/05/06 06:23:38;;;;;;;10.70;6.05;;;;;;;10.68;100.00;100420.09;5053245;28;20078;-75
2023/05/06 06:26:05;;;;;;;9.73;5.95;;;;;;;10.67;100.00;100415.69;5053325;28;20044;-74
2023/05/06 06:28:30;;;;;;;12.90;7.00;;;;;;;10.65;100.00;100423.16;5052390;28;20549;-75
2023/05/06 06:30:57;;;;;;;9.70;6.28;;;;;;;10.62;100.00;100433.53;5054096;28;20120;-73
2023/05/06 06:33:23;;;;;;;12.23;5.95;;;;;;;10.58;100.00;100437.84;5053696;28;20029;-74
2023/05/06 06:36:03;;;;;;;11.05;5.72;;;;;;;10.59;100.00;100436.56;5053475;28;20025;-75
2023/05/06 06:38:33;;;;;;;8.75;5.43;;;;;;;10.57;100.00;100431.34;5053189;28;20386;-76
2023/05/06 06:41:01;;;;;;;10.15;5.82;;;;;;;10.55;100.00;100440.41;5052243;28;20107;-77
2023/05/06 06:43:29;;;;;;;10.10;4.65;;;;;;;10.56;100.00;100432.63;5057108;28;20032;-74
2023/05/06 06:45:55;;;;;;;7.55;5.50;;;;;;;10.51;100.00;100431.25;5058797;28;20512;-76
2023/05/06 06:48:27;;;;;;;11.77;5.80;;;;;;;10.52;100.00;100429.16;5059469;28;20029;-78
2023/05/06 06:50:56;;;;;;;10.90;5.60;;;;;;;10.44;100.00;100425.88;5058540;28;20079;-79
2023/05/06 06:53:22;;;;;;;12.82;5.28;;;;;;;10.31;100.00;100416.00;5057930;28;20481;-77
2023/05/06 06:55:49;;;;;;;12.73;6.55;;;;;;;10.02;100.00;100402.44;5058071;28;20040;-79
2023/05/06 06:58:15;;;;;;;9.25;6.00;;;;;;;10.05;100.00;100439.38;5056619;28;20041;-76
2023/05/06 07:00:42;;;;;;;11.27;6.20;;;;;;;9.90;100.00;100434.84;5057385;28;20033;-79
2023/05/06 07:03:07;;;;;;;10.07;5.78;;;;;;;9.85;100.00;100435.53;5057897;28;20029;-76
2023/05/06 07:05:33;;;;;;;9.93;6.25;;;;;;;9.80;100.00;100439.84;5058662;28;20066;-79
2023/05/06 07:07:59;;;;;;;10.50;6.35;;;;;;;9.77;100.00;100437.97;5057034;28;20044;-77
2023/05/06 07:10:25;;;;;;;11.20;6.85;;;;;;;9.68;100.00;100432.28;5039001;28;20162;-78
2023/05/06 07:12:51;;;;;;;9.25;5.50;;;;;;;9.68;100.00;100435.13;5057758;28;20477;-79
2023/05/06 07:15:18;;;;;;;9.35;5.95;;;;;;;9.61;100.00;100424.84;5056880;28;20028;-76
2023/05/06 07:17:48;;;;;;;12.45;7.53;;;;;;;9.66;100.00;100440.53;5051985;28;20025;-77
2023/05/06 07:20:16;;;;;;;13.45;7.13;;;;;;;9.69;100.00;100443.19;5054768;28;20044;-79
2023/05/06 07:22:44;;;;;;;12.48;6.78;;;;;;;9.64;100.00;100437.38;5054339;28;20112;-78
2023/05/06 07:25:11;;;;;;;12.60;7.10;;;;;;;9.62;100.00;100432.16;5055310;28;20052;-77
2023/05/06 07:27:38;;;;;;;11.60;7.20;;;;;;;9.59;100.00;100426.63;5055381;28;20037;-78
2023/05/06 07:30:05;;;;;;;10.85;7.05;;;;;;;9.44;100.00;100411.47;5052964;28;20044;-78
2023/05/06 07:32:30;;;;;;;12.88;8.07;;;;;;;9.40;100.00;100423.03;5054459;28;20039;-76
2023/05/06 07:34:55;;;;;;;10.27;7.57;;;;;;;9.34;100.00;100430.69;5053695;28;20112;-74
2023/05/06 07:37:27;;;;;;;16.10;7.95;;;;;;;9.32;100.00;100421.03;5054566;28;20060;-75
2023/05/06 07:39:53;;;;;;;11.38;6.80;;;;;;;9.29;100.00;100419.16;5055519;28;20485;-78
2023/05/06 07:42:20;;;;;;;12.23;8.20;;;;;;;9.27;100.00;100425.31;5054324;28;20111;-77
2023/05/06 07:44:46;;;;;;;13.02;7.57;;;;;;;9.27;100.00;100425.31;5054723;28;20021;-76
2023/05/06 07:47:19;;;;;;;10.18;7.88;;;;;;;9.23;100.00;100411.25;5053686;28;20049;-77
2023/05/06 07:49:45;;;;;;;12.50;7.65;;;;;;;9.17;100.00;100409.53;5054292;28;20041;-74
2023/05/06 07:52:10;;;;;;;11.93;7.50;;;;;;;9.13;100.00;100386.91;5055414;28;20032;-79
2023/05/06 07:54:36;;;;;;;15.15;7.85;;;;;;;9.22;100.00;100398.25;5054454;28;20043;-78
2023/05/06 07:57:02;;;;;;;13.15;8.35;;;;;;;9.12;100.00;100388.16;5054547;28;20029;-76
2023/05/06 07:59:28;;;;;;;13.43;7.80;;;;;;;9.25;100.00;100407.91;5055192;28;20053;-76
2023/05/06 08:01:55;;;;;;;10.52;7.85;;;;;;;9.19;100.00;100402.09;5055653;28;20206;-79
2023/05/06 08:04:21;;;;;;;14.38;8.05;;;;;;;9.25;100.00;100391.56;5055300;28;20071;-78
2023/05/06 08:06:48;;;;;;;16.67;9.10;;;;;;;9.25;100.00;100373.69;5036977;28;20250;-82
2023/05/06 08:09:14;;;;;;;11.85;8.45;;;;;;;9.23;100.00;100359.13;5037261;28;20438;-75
2023/05/06 08:11:39;;;;;;;15.02;8.88;;;;;;;9.12;100.00;100359.66;5055554;28;20063;-76
2023/05/06 08:14:05;;;;;;;12.95;8.93;;;;;;;9.03;100.00;100364.59;5054895;28;20029;-77
2023/05/06 08:16:34;;;;;;;19.83;10.50;;;;;;;8.94;100.00;100401.69;5037239;28;20462;-75
2023/05/06 08:18:59;;;;;;;16.27;10.85;;;;;;;8.90;100.00;100436.06;5037028;28;20517;-75
2023/05/06 08:21:25;;;;;;;17.63;10.90;;;;;;;8.90;100.00;100444.59;5055167;28;20028;-79
2023/05/06 08:23:52;;;;;;;15.70;9.68;;;;;;;9.03;100.00;100465.16;5055278;28;20033;-75
2023/05/06 08:26:20;;;;;;;18.70;9.77;;;;;;;9.08;100.00;100481.63;5056187;28;20483;-79
2023/05/06 08:28:45;;;;;;;14.65;9.35;;;;;;;9.20;100.00;100485.53;5053927;28;20427;-78
2023/05/06 08:31:11;;;;;;;14.90;9.43;;;;;;;9.33;100.00;100491.06;5056355;28;20025;-83
2023/05/06 08:33:37;;;;;;;14.57;9.73;;;;;;;9.37;100.00;100494.53;5056735;28;20033;-84
2023/05/06 08:36:04;;;;;;;13.48;8.82;;;;;;;9.48;100.00;100491.97;5053920;28;20041;-73
2023/05/06 08:38:29;;;;;;;12.48;8.40;;;;;;;9.53;100.00;100497.00;5056561;28;20154;-73
2023/05/06 08:41:11;;;;;;;14.02;8.93;;;;;;;9.58;100.00;100504.91;5055795;28;20047;-74
2023/05/06 08:43:41;;;;;;;13.18;7.70;;;;;;;9.63;100.00;100499.34;5053615;28;20028;-78
2023/05/06 08:46:06;;;;;;;13.48;8.70;;;;;;;9.67;100.00;100496.31;5053634;28;20056;-80
2023/05/06 08:48:33;;;;;;;15.35;8.88;;;;;;;9.72;100.00;100480.59;5055760;28;20370;-78
2023/05/06 08:51:15;;;;;;;13.35;8.60;;;;;;;9.72;100.00;100469.97;5053865;28;20032;-78
2023/05/06 08:53:47;;;;;;;19.55;9.02;;;;;;;9.69;100.00;100470.97;5051943;28;20013;-79
2023/05/06 08:56:15;;;;;;;15.32;10.32;;;;;;;9.68;100.00;100475.88;5076368;28;20029;-79
2023/05/06 08:58:44;;;;;;;13.45;9.80;;;;;;;9.65;100.00;100461.75;5060408;28;20052;-79
2023/05/06 09:01:09;;;;;;;16.70;10.25;;;;;;;9.78;100.00;100479.50;5063349;28;20031;-76
2023/05/06 09:03:35;;;;;;;15.05;9.55;;;;;;;9.90;100.00;100475.63;5055037;28;20068;-79
2023/05/06 09:06:01;;;;;;;17.73;9.25;;;;;;;9.83;100.00;100470.28;5053547;28;20474;-79
2023/05/06 09:08:27;;;;;;;13.38;8.43;;;;;;;9.68;100.00;100460.81;5052057;28;20466;-79
2023/05/06 09:10:55;;;;;;;16.45;9.23;;;;;;;9.62;100.00;100462.72;5051591;28;20410;-79
2023/05/06 09:13:22;;;;;;;15.70;9.30;;;;;;;9.68;100.00;100446.53;5035439;28;20036;-78
2023/05/06 09:15:56;;;;;;;14.35;10.13;;;;;;;9.78;100.00;100450.97;5053099;28;20056;-76
2023/05/06 09:18:22;;;;;;;15.50;8.95;;;;;;;9.78;100.00;100447.31;5053042;28;20470;-78
2023/05/06 09:20:50;;;;;;;18.08;9.93;;;;;;;9.85;100.00;100453.44;5052274;28;20045;-77
2023/05/06 09:23:17;;;;;;;17.10;8.77;;;;;;;10.02;100.00;100454.63;5053273;28;20037;-75
2023/05/06 09:25:44;;;;;;;18.27;9.23;;;;;;;10.17;100.00;100454.69;5034213;28;20473;-76
2023/05/06 09:28:12;;;;;;;11.32;8.32;;;;;;;10.26;100.00;100456.66;5053155;28;20039;-76
2023/05/06 09:30:39;;;;;;;14.90;9.73;;;;;;;10.30;100.00;100455.22;5052052;28;20542;-77
2023/05/06 09:33:06;;;;;;;14.43;8.73;;;;;;;10.43;100.00;100466.41;5052360;28;20063;-76
2023/05/06 09:35:41;;;;;;;12.10;8.88;;;;;;;10.53;100.00;100467.91;5053483;28;20066;-76
2023/05/06 09:38:08;;;;;;;15.57;9.07;;;;;;;10.55;100.00;100471.84;5053411;28;20378;-77
2023/05/06 09:40:35;;;;;;;15.38;8.88;;;;;;;10.64;100.00;100476.66;5052523;28;20103;-77
2023/05/06 09:43:02;;;;;;;12.15;8.95;;;;;;;10.57;100.00;100470.56;5052263;28;20033;-77
2023/05/06 09:45:29;;;;;;;14.93;8.73;;;;;;;10.52;100.00;100466.31;5052272;28;20508;-76
2023/05/06 09:47:55;;;;;;;16.98;8.75;;;;;;;10.54;100.00;100458.03;5035471;28;20037;-76
2023/05/06 09:50:22;;;;;;;13.75;8.98;;;;;;;10.60;100.00;100458.94;5051791;28;20382;-77
2023/05/06 09:52:49;;;;;;;16.52;9.23;;;;;;;10.68;100.00;100457.25;5051484;28;20504;-78
2023/05/06 09:55:25;;;;;;;15.70;8.82;;;;;;;10.68;100.00;100453.66;5052928;28;20025;-77
2023/05/06 09:57:51;;;;;;;12.85;8.57;;;;;;;10.66;100.00;100456.97;5052189;28;20060;-77
2023/05/06 10:00:17;;;;;;;17.35;9.52;;;;;;;10.52;100.00;100449.97;5018989;28;20057;-79
2023/05/06 10:02:47;;;;;;;13.60;9.35;;;;;;;10.48;100.00;100454.28;5052951;28;20061;-77
2023/05/06 10:05:14;;;;;;;15.90;9.15;;;;;;;10.31;100.00;100458.84;5053402;28;20116;-76
2023/05/06 10:07:41;;;;;;;12.90;9.65;;;;;;;10.18;100.00;100453.41;5051981;28;20041;-80
2023/05/06 10:10:09;;;;;;;17.88;9.68;;;;;;;10.09;100.00;100454.25;5051416;28;20033;-77
2023/05/06 10:12:35;;;;;;;12.20;10.00;;;;;;;10.14;100.00;100454.88;5052908;28;20040;-78
2023/05/06 10:15:03;;;;;;;16.38;9.07;;;;;;;10.11;100.00;100450.91;5051689;28;20036;-75
2023/05/06 10:17:37;;;;;;;15.23;9.48;;;;;;;9.98;100.00;100439.75;5052514;28;20044;-79
2023/05/06 10:20:06;;;;;;;20.42;10.15;;;;;;;9.91;100.00;100440.09;5051530;28;20024;-76
2023/05/06 10:22:58;;;;;;;18.77;9.98;;;;;;;9.89;100.00;100439.78;5052516;28;20116;-75
2023/05/06 10:25:41;;;;;;;15.38;10.02;;;;;;;9.91;100.00;100439.28;5052417;28;20527;-76
2023/05/06 10:28:11;;;;;;;16.33;10.27;;;;;;;10.00;100.00;100444.94;5052936;28;20451;-76
2023/05/06 10:30:38;;;;;;;12.98;9.60;;;;;;;10.13;100.00;100436.16;5052799;28;20033;-73
2023/05/06 10:33:06;;;;;;;18.85;9.88;;;;;;;10.24;100.00;100433.50;5053479;28;20094;-75
2023/05/06 10:35:43;;;;;;;15.15;9.02;;;;;;;10.39;100.00;100435.13;5051539;28;20367;-74
2023/05/06 10:38:36;;;;;;;16.63;9.77;;;;;;;10.64;100.00;100435.88;5050497;28;20029;-74
2023/05/06 10:41:02;;;;;;;12.30;8.77;;;;;;;10.74;100.00;100437.38;5045802;28;20061;-75
2023/05/06 10:43:41;;;;;;;12.82;8.65;;;;;;;10.91;100.00;100444.19;5051205;28;20060;-77
2023/05/06 10:46:10;;;;;;;15.93;9.57;;;;;;;10.98;100.00;100443.78;5052761;28;20025;-75
2023/05/06 10:48:37;;;;;;;17.48;10.52;;;;;;;11.04;100.00;100449.63;5052133;28;20474;-79
2023/05/06 10:51:26;;;;;;;14.05;9.00;;;;;;;11.18;100.00;100455.38;5034632;28;20029;-78
2023/05/06 10:54:09;;;;;;;11.23;8.10;;;;;;;11.34;100.00;100454.06;5052486;28;20086;-78
2023/05/06 10:56:58;;;;;;;11.02;7.82;;;;;;;11.42;100.00;100446.66;5052363;28;20037;-78
2023/05/06 10:59:25;;;;;;;13.15;8.38;;;;;;;11.47;100.00;100448.06;5048060;28;20082;-78
2023/05/06 11:02:07;;;;;;;13.15;8.60;;;;;;;11.43;100.00;100438.88;5051358;28;20398;-77
2023/05/06 11:04:33;;;;;;;14.60;8.35;;;;;;;11.38;100.00;100435.41;5051393;28;20071;-77
2023/05/06 11:07:13;;;;;;;11.80;8.63;;;;;;;11.38;100.00;100440.34;5051255;28;20375;-77
2023/05/06 11:10:07;;;;;;;11.00;8.55;;;;;;;11.46;100.00;100435.81;5051939;28;20029;-78
2023/05/06 11:12:49;;;;;;;12.60;9.57;;;;;;;11.63;100.00;100442.56;5051250;28;20486;-78
2023/05/06 11:15:38;;;;;;;18.83;11.55;;;;;;;11.62;100.00;100443.06;5051571;28;20024;-78
2023/05/06 11:18:24;;;;;;;14.27;9.75;;;;;;;11.82;100.00;100441.03;5052839;28;20033;-78
2023/05/06 11:20:50;;;;;;;13.50;9.32;;;;;;;11.99;100.00;100437.63;5045252;28;20033;-78